Time;durP1;ratioP1;P1;durP2;ratioP2;P2;SDS_P1;SDS_P2;PMS_P1;PMS_P2;Temp;Humidity;BMP_temperature;BMP_pressure;BME280_temperature;BME280_humidity;BME280_pressure;Samples;Min_cycle;Max_cycle;Signal;HPM_P1;HPM_P2
2021/01/28 00:01:23;;;;;;;37.33;14.60;;;;;;;;;;5132758;27;20022;-83
2021/01/28 00:03:48;;;;;;;36.47;14.97;;;;;;;;;;5134071;27;20027;-83
2021/01/28 00:06:13;;;;;;;44.20;15.70;;;;;;;;;;5132747;27;20094;-83
2021/01/28 00:08:39;;;;;;;40.53;15.10;;;;;;;;;;5132692;27;20018;-83
2021/01/28 00:11:04;;;;;;;37.67;14.10;;;;;;;;;;5132409;27;20550;-84
2021/01/28 00:13:30;;;;;;;38.77;15.30;;;;;;;;;;5132291;27;20027;-83
2021/01/28 00:15:55;;;;;;;40.40;14.57;;;;;;;;;;5132482;27;20047;-83
2021/01/28 00:18:20;;;;;;;48.60;15.77;;;;;;;;;;5131459;27;20014;-83
2021/01/28 00:20:47;;;;;;;41.10;15.57;;;;;;;;;;5132663;27;20495;-83
2021/01/28 00:23:13;;;;;;;37.70;15.27;;;;;;;;;;5132381;27;20307;-84
2021/01/28 00:25:39;;;;;;;41.67;15.67;;;;;;;;;;5132686;27;20023;-83
2021/01/28 00:28:06;;;;;;;46.63;15.30;;;;;;;;;;5130459;27;20039;-83
2021/01/28 00:30:36;;;;;;;37.10;14.87;;;;;;;;;;5129178;27;20023;-83
2021/01/28 00:33:02;;;;;;;36.43;14.37;;;;;;;;;;5132217;27;20019;-83
2021/01/28 00:35:29;;;;;;;38.17;15.43;;;;;;;;;;5132032;27;20031;-83
2021/01/28 00:37:55;;;;;;;34.03;14.17;;;;;;;;;;5132037;27;20031;-84
2021/01/28 00:40:20;;;;;;;32.40;14.43;;;;;;;;;;5131925;27;20019;-83
2021/01/28 00:42:46;;;;;;;37.63;13.87;;;;;;;;;;5132015;28;20038;-83
2021/01/28 00:45:12;;;;;;;38.73;13.80;;;;;;;;;;5132045;28;20083;-83
2021/01/28 00:47:37;;;;;;;35.07;14.07;;;;;;;;;;5132302;28;20439;-83
2021/01/28 00:50:02;;;;;;;32.47;13.33;;;;;;;;;;5132156;28;20470;-83
2021/01/28 00:52:28;;;;;;;31.47;12.73;;;;;;;;;;5131739;28;20043;-84
2021/01/28 00:54:53;;;;;;;27.67;12.93;;;;;;;;;;5132147;28;20485;-84
2021/01/28 00:57:18;;;;;;;29.60;12.67;;;;;;;;;;5131604;28;20030;-83
2021/01/28 00:59:43;;;;;;;27.50;11.77;;;;;;;;;;5132120;28;20068;-83
2021/01/28 01:02:08;;;;;;;25.97;11.87;;;;;;;;;;5151503;27;20026;-81
2021/01/28 01:04:33;;;;;;;29.57;12.20;;;;;;;;;;5131984;28;20022;-83
2021/01/28 01:06:59;;;;;;;27.27;12.90;;;;;;;;;;5131231;28;20046;-84
2021/01/28 01:09:25;;;;;;;23.93;11.00;;;;;;;;;;5131694;28;20030;-84
2021/01/28 01:11:51;;;;;;;21.07;10.50;;;;;;;;;;5123237;28;20065;-83
2021/01/28 01:14:16;;;;;;;28.20;10.93;;;;;;;;;;5131216;28;20062;-83
2021/01/28 01:16:41;;;;;;;26.53;11.33;;;;;;;;;;5131792;28;20059;-83
2021/01/28 01:19:07;;;;;;;20.13;9.90;;;;;;;;;;5132919;28;20118;-83
2021/01/28 01:21:32;;;;;;;23.27;10.67;;;;;;;;;;5131595;28;20080;-84
2021/01/28 01:23:57;;;;;;;23.97;10.40;;;;;;;;;;5131507;28;20493;-84
2021/01/28 01:26:23;;;;;;;22.87;9.87;;;;;;;;;;5131619;28;20023;-83
2021/01/28 01:28:48;;;;;;;22.53;10.70;;;;;;;;;;5133014;27;20362;-83
2021/01/28 01:31:13;;;;;;;21.73;11.03;;;;;;;;;;5135793;27;20030;-83
2021/01/28 01:33:38;;;;;;;21.87;9.73;;;;;;;;;;5135353;27;20035;-83
2021/01/28 01:36:04;;;;;;;23.40;10.07;;;;;;;;;;5135370;27;20079;-84
2021/01/28 01:38:29;;;;;;;18.13;10.40;;;;;;;;;;5135436;27;20427;-84
2021/01/28 01:40:56;;;;;;;21.97;10.07;;;;;;;;;;5136727;27;20060;-83
2021/01/28 01:43:21;;;;;;;19.73;10.13;;;;;;;;;;5135388;27;20470;-83
2021/01/28 01:45:47;;;;;;;30.97;11.00;;;;;;;;;;5135084;27;20118;-83
2021/01/28 01:48:26;;;;;;;19.63;10.70;;;;;;;;;;5135521;27;20027;-83
2021/01/28 01:50:57;;;;;;;19.50;9.77;;;;;;;;;;5135319;27;20114;-83
2021/01/28 01:53:25;;;;;;;19.43;10.30;;;;;;;;;;5118194;27;20031;-83
2021/01/28 01:56:02;;;;;;;20.03;9.00;;;;;;;;;;5128658;27;20019;-84
2021/01/28 01:58:32;;;;;;;15.97;8.60;;;;;;;;;;5120936;27;20113;-81
2021/01/28 02:00:58;;;;;;;20.30;9.27;;;;;;;;;;5135035;27;20067;-82
2021/01/28 02:03:23;;;;;;;16.37;9.17;;;;;;;;;;5134732;27;20012;-81
2021/01/28 02:05:54;;;;;;;20.37;9.50;;;;;;;;;;5134959;27;20426;-83
2021/01/28 02:08:20;;;;;;;16.97;8.93;;;;;;;;;;5134847;27;20016;-83
2021/01/28 02:10:45;;;;;;;17.07;7.97;;;;;;;;;;5134867;27;20031;-84
2021/01/28 02:13:10;;;;;;;16.80;9.07;;;;;;;;;;5134748;27;20023;-84
2021/01/28 02:15:35;;;;;;;16.03;8.50;;;;;;;;;;5134922;27;20031;-84
2021/01/28 02:18:01;;;;;;;17.33;8.90;;;;;;;;;;5134691;27;20031;-84
2021/01/28 02:20:39;;;;;;;14.83;8.30;;;;;;;;;;5134427;27;20039;-84
2021/01/28 02:23:25;;;;;;;16.60;8.30;;;;;;;;;;5134484;27;20114;-84
2021/01/28 02:25:51;;;;;;;14.50;8.53;;;;;;;;;;5119955;27;20072;-83
2021/01/28 02:28:17;;;;;;;16.00;8.33;;;;;;;;;;5135481;27;20102;-84
2021/01/28 02:30:42;;;;;;;14.73;8.07;;;;;;;;;;5134369;27;20101;-84
2021/01/28 02:33:09;;;;;;;17.67;8.83;;;;;;;;;;5134431;27;20500;-84
2021/01/28 02:35:34;;;;;;;14.27;8.20;;;;;;;;;;5134163;27;20015;-84
2021/01/28 02:38:01;;;;;;;14.60;8.13;;;;;;;;;;5135636;27;20121;-84
2021/01/28 02:40:27;;;;;;;16.23;8.17;;;;;;;;;;5133397;27;20094;-83
2021/01/28 02:42:52;;;;;;;18.33;9.80;;;;;;;;;;5135358;27;20019;-84
2021/01/28 02:45:22;;;;;;;15.70;9.00;;;;;;;;;;5134248;27;20025;-84
2021/01/28 02:47:52;;;;;;;15.27;9.03;;;;;;;;;;5133518;27;20015;-84
2021/01/28 02:50:17;;;;;;;14.60;7.90;;;;;;;;;;5133265;27;20071;-84
2021/01/28 02:52:43;;;;;;;13.50;7.67;;;;;;;;;;5132909;27;20019;-84
2021/01/28 02:55:08;;;;;;;14.03;8.67;;;;;;;;;;5132496;27;20099;-85
2021/01/28 02:57:33;;;;;;;15.50;8.20;;;;;;;;;;5132215;27;20111;-83
2021/01/28 02:59:58;;;;;;;12.77;7.50;;;;;;;;;;5135186;27;20015;-84
2021/01/28 03:02:23;;;;;;;11.40;7.77;;;;;;;;;;5135242;27;20094;-84
2021/01/28 03:04:49;;;;;;;16.33;8.00;;;;;;;;;;5133506;27;20011;-84
2021/01/28 03:07:14;;;;;;;12.77;6.67;;;;;;;;;;5133741;27;20015;-84
2021/01/28 03:09:40;;;;;;;15.30;8.10;;;;;;;;;;5134567;27;20019;-85
2021/01/28 03:12:06;;;;;;;12.70;7.43;;;;;;;;;;5134882;27;20331;-84
2021/01/28 03:14:31;;;;;;;11.57;7.97;;;;;;;;;;5133123;27;20027;-84
2021/01/28 03:16:57;;;;;;;12.30;7.90;;;;;;;;;;5133614;27;20409;-84
2021/01/28 03:19:22;;;;;;;10.87;6.70;;;;;;;;;;5133358;27;20015;-84
2021/01/28 03:21:47;;;;;;;10.80;7.30;;;;;;;;;;5134460;27;20015;-85
2021/01/28 03:24:13;;;;;;;10.30;6.90;;;;;;;;;;5133351;27;20102;-84
2021/01/28 03:26:38;;;;;;;11.17;7.50;;;;;;;;;;5133711;27;20160;-84
2021/01/28 03:29:07;;;;;;;10.80;7.00;;;;;;;;;;5133453;27;20466;-84
2021/01/28 03:31:33;;;;;;;13.00;6.97;;;;;;;;;;5133091;27;20027;-82
2021/01/28 03:33:58;;;;;;;10.30;6.77;;;;;;;;;;5133027;27;20022;-82
2021/01/28 03:36:23;;;;;;;10.13;7.03;;;;;;;;;;5133110;27;20160;-82
2021/01/28 03:38:48;;;;;;;13.30;7.20;;;;;;;;;;5133195;27;20027;-81
2021/01/28 03:41:13;;;;;;;10.47;6.83;;;;;;;;;;5133082;27;20020;-82
2021/01/28 03:43:39;;;;;;;7.70;5.60;;;;;;;;;;5133052;27;20018;-82
2021/01/28 03:46:04;;;;;;;9.33;6.30;;;;;;;;;;5132998;27;20076;-82
2021/01/28 03:48:29;;;;;;;13.80;6.13;;;;;;;;;;5134407;27;20015;-82
2021/01/28 03:50:54;;;;;;;7.60;5.43;;;;;;;;;;5132221;27;20057;-82
2021/01/28 03:53:19;;;;;;;9.97;6.70;;;;;;;;;;5132676;27;20014;-82
2021/01/28 03:55:45;;;;;;;9.50;6.47;;;;;;;;;;5132735;27;20063;-82
2021/01/28 03:58:10;;;;;;;9.17;6.23;;;;;;;;;;5132667;27;20023;-82
2021/01/28 04:00:35;;;;;;;9.30;6.50;;;;;;;;;;5132925;27;20012;-82
2021/01/28 04:03:01;;;;;;;11.10;6.83;;;;;;;;;;5132457;27;20465;-82
2021/01/28 04:05:26;;;;;;;9.60;6.30;;;;;;;;;;5132798;27;20023;-82
2021/01/28 04:07:51;;;;;;;9.50;6.57;;;;;;;;;;5132655;27;20385;-82
2021/01/28 04:10:18;;;;;;;10.63;5.90;;;;;;;;;;5133822;27;20027;-82
2021/01/28 04:12:43;;;;;;;9.13;6.27;;;;;;;;;;5132451;27;20071;-82
2021/01/28 04:15:09;;;;;;;9.30;6.63;;;;;;;;;;5132382;27;20023;-82
2021/01/28 04:17:35;;;;;;;10.05;6.28;;;;;;;;;;5133765;27;20026;-82
2021/01/28 04:20:01;;;;;;;8.87;5.10;;;;;;;;;;5132244;27;20017;-81
2021/01/28 04:22:26;;;;;;;8.45;5.43;;;;;;;;;;5133783;27;20090;-82
2021/01/28 04:24:51;;;;;;;8.52;5.75;;;;;;;;;;5132457;27;20027;-82
2021/01/28 04:27:16;;;;;;;8.75;6.07;;;;;;;;;;5132372;27;20019;-82
2021/01/28 04:29:42;;;;;;;7.00;4.82;;;;;;;;;;5133664;27;20482;-82
2021/01/28 04:32:07;;;;;;;11.38;6.00;;;;;;;;;;5133975;27;20050;-82
2021/01/28 04:34:32;;;;;;;7.97;5.22;;;;;;;;;;5132352;27;20110;-82
2021/01/28 04:36:57;;;;;;;7.90;5.50;;;;;;;;;;5131997;27;20141;-82
2021/01/28 04:39:22;;;;;;;8.05;5.32;;;;;;;;;;5132156;27;20015;-82
2021/01/28 04:41:48;;;;;;;10.03;6.20;;;;;;;;;;5132178;27;20053;-81
2021/01/28 04:44:13;;;;;;;7.03;4.87;;;;;;;;;;5132202;28;20015;-81
2021/01/28 04:46:41;;;;;;;7.60;5.20;;;;;;;;;;5131426;28;20027;-82
2021/01/28 04:49:09;;;;;;;7.25;5.38;;;;;;;;;;5131414;28;20385;-82
2021/01/28 04:51:34;;;;;;;8.10;5.20;;;;;;;;;;5131594;28;20027;-82
2021/01/28 04:54:04;;;;;;;8.18;5.20;;;;;;;;;;5131203;28;20034;-82
2021/01/28 04:56:31;;;;;;;9.07;5.13;;;;;;;;;;5133038;27;20052;-82
2021/01/28 04:59:17;;;;;;;8.52;4.90;;;;;;;;;;5133471;27;20031;-82
2021/01/28 05:01:42;;;;;;;10.18;5.32;;;;;;;;;;5131590;28;20492;-81
2021/01/28 05:04:10;;;;;;;5.80;4.18;;;;;;;;;;5132127;27;20027;-81
2021/01/28 05:06:35;;;;;;;6.95;4.47;;;;;;;;;;5135507;27;20018;-82
2021/01/28 05:09:00;;;;;;;4.80;3.20;;;;;;;;;;5135585;27;20027;-82
2021/01/28 05:11:27;;;;;;;4.60;3.50;;;;;;;;;;5135300;27;20058;-82
2021/01/28 05:13:52;;;;;;;3.72;2.95;;;;;;;;;;5136271;27;20560;-82
2021/01/28 05:16:20;;;;;;;4.90;3.72;;;;;;;;;;5135861;27;20202;-82
2021/01/28 05:18:59;;;;;;;6.20;4.22;;;;;;;;;;5137025;27;20394;-82
2021/01/28 05:21:26;;;;;;;5.93;3.83;;;;;;;;;;5137196;27;20052;-82
2021/01/28 05:23:59;;;;;;;4.50;3.42;;;;;;;;;;5135660;27;20026;-82
2021/01/28 05:26:37;;;;;;;5.50;3.38;;;;;;;;;;5135839;27;20015;-82
2021/01/28 05:29:23;;;;;;;4.90;3.28;;;;;;;;;;5135671;27;20148;-81
2021/01/28 05:31:49;;;;;;;4.50;3.17;;;;;;;;;;5134817;27;20383;-82
2021/01/28 05:34:19;;;;;;;4.60;3.40;;;;;;;;;;5135703;27;20092;-82
2021/01/28 05:36:53;;;;;;;7.35;3.83;;;;;;;;;;5135395;27;20038;-82
2021/01/28 05:39:24;;;;;;;5.55;3.90;;;;;;;;;;5135195;27;20030;-82
2021/01/28 05:41:50;;;;;;;4.78;3.55;;;;;;;;;;5135539;27;20015;-81
2021/01/28 05:44:21;;;;;;;4.95;3.35;;;;;;;;;;5136915;27;20015;-82
2021/01/28 05:46:58;;;;;;;5.28;3.58;;;;;;;;;;5135566;27;20041;-82
2021/01/28 05:49:23;;;;;;;5.07;3.58;;;;;;;;;;5135398;27;20470;-82
2021/01/28 05:51:49;;;;;;;4.57;3.63;;;;;;;;;;5135417;27;20027;-82
2021/01/28 05:54:14;;;;;;;5.75;4.20;;;;;;;;;;5135343;27;20034;-81
2021/01/28 05:56:58;;;;;;;5.43;3.88;;;;;;;;;;5136591;27;20026;-82
2021/01/28 05:59:49;;;;;;;10.00;3.80;;;;;;;;;;5135101;27;20064;-82
2021/01/28 06:02:33;;;;;;;4.20;2.88;;;;;;;;;;5130428;27;20063;-82
2021/01/28 06:05:27;;;;;;;4.70;3.10;;;;;;;;;;5122953;27;20015;-82
2021/01/28 06:08:01;;;;;;;5.00;3.25;;;;;;;;;;5109049;27;20031;-82
2021/01/28 06:10:39;;;;;;;4.40;3.33;;;;;;;;;;5134672;27;20027;-82
2021/01/28 06:13:18;;;;;;;5.18;3.50;;;;;;;;;;5134397;27;20464;-82
2021/01/28 06:15:46;;;;;;;7.15;3.50;;;;;;;;;;5134507;27;20019;-82
2021/01/28 06:18:18;;;;;;;4.22;3.10;;;;;;;;;;5134054;27;20019;-82
2021/01/28 06:21:06;;;;;;;10.95;3.10;;;;;;;;;;5134531;27;20462;-82
2021/01/28 06:23:41;;;;;;;4.47;3.20;;;;;;;;;;5133580;27;20390;-82
2021/01/28 06:26:24;;;;;;;3.42;2.72;;;;;;;;;;5134845;27;20408;-82
2021/01/28 06:28:52;;;;;;;4.43;3.63;;;;;;;;;;5134538;27;20358;-82
2021/01/28 06:31:37;;;;;;;3.28;2.75;;;;;;;;;;5134808;27;20470;-82
2021/01/28 06:34:26;;;;;;;7.93;4.25;;;;;;;;;;5097962;27;20059;-82
2021/01/28 06:36:54;;;;;;;5.90;3.53;;;;;;;;;;5126103;27;20035;-82
2021/01/28 06:39:22;;;;;;;3.55;2.80;;;;;;;;;;5134457;27;20419;-82
2021/01/28 06:42:11;;;;;;;3.67;3.17;;;;;;;;;;5134366;27;20015;-82
2021/01/28 06:44:39;;;;;;;4.70;2.90;;;;;;;;;;5121238;27;20026;-82
2021/01/28 06:47:13;;;;;;;3.72;2.95;;;;;;;;;;5134433;27;20034;-82
2021/01/28 06:49:54;;;;;;;4.10;3.17;;;;;;;;;;5134679;27;20516;-82
2021/01/28 06:52:42;;;;;;;4.93;3.30;;;;;;;;;;5130217;27;20019;-82
2021/01/28 06:55:34;;;;;;;6.03;3.00;;;;;;;;;;5134493;27;20102;-82
2021/01/28 06:58:05;;;;;;;3.63;2.53;;;;;;;;;;5129827;27;20028;-82
2021/01/28 07:00:39;;;;;;;3.15;2.45;;;;;;;;;;5133903;27;20015;-82
2021/01/28 07:03:10;;;;;;;3.28;2.67;;;;;;;;;;5133839;27;20003;-82
2021/01/28 07:05:51;;;;;;;4.57;2.83;;;;;;;;;;5134004;27;20462;-82
2021/01/28 07:08:32;;;;;;;4.80;3.08;;;;;;;;;;5121002;27;20106;-82
2021/01/28 07:10:58;;;;;;;5.60;3.70;;;;;;;;;;5133663;27;20034;-81
2021/01/28 07:13:25;;;;;;;4.35;2.10;;;;;;;;;;5130264;27;20508;-82
2021/01/28 07:16:02;;;;;;;4.75;3.08;;;;;;;;;;5133417;27;20023;-80
2021/01/28 07:18:40;;;;;;;4.63;2.78;;;;;;;;;;5129258;27;20026;-82
2021/01/28 07:21:07;;;;;;;2.92;2.15;;;;;;;;;;5134663;27;20512;-82
2021/01/28 07:23:34;;;;;;;4.32;2.35;;;;;;;;;;5133529;27;20026;-81
2021/01/28 07:26:13;;;;;;;7.63;2.80;;;;;;;;;;5133079;27;20026;-81
2021/01/28 07:28:38;;;;;;;6.53;3.35;;;;;;;;;;5132623;27;20382;-81
2021/01/28 07:31:03;;;;;;;4.23;3.10;;;;;;;;;;5134043;27;20025;-81
2021/01/28 07:33:29;;;;;;;4.43;2.77;;;;;;;;;;5133443;27;20047;-81
2021/01/28 07:35:55;;;;;;;3.30;2.33;;;;;;;;;;5131662;27;20015;-82
2021/01/28 07:38:26;;;;;;;6.67;3.53;;;;;;;;;;5133112;27;20030;-81
2021/01/28 07:41:10;;;;;;;3.28;2.45;;;;;;;;;;5132966;27;20019;-82
2021/01/28 07:43:39;;;;;;;3.33;2.30;;;;;;;;;;5133375;27;20354;-81
2021/01/28 07:46:12;;;;;;;3.60;1.80;;;;;;;;;;5132740;27;20019;-82
2021/01/28 07:48:38;;;;;;;3.17;2.00;;;;;;;;;;5134529;27;20102;-82
2021/01/28 07:51:22;;;;;;;5.15;1.80;;;;;;;;;;5132855;27;20045;-82
2021/01/28 07:53:49;;;;;;;2.72;1.80;;;;;;;;;;5133103;27;20023;-81
2021/01/28 07:56:33;;;;;;;2.75;1.98;;;;;;;;;;5134254;27;20076;-82
2021/01/28 07:58:58;;;;;;;3.72;2.35;;;;;;;;;;5132990;27;20052;-81
2021/01/28 08:01:23;;;;;;;3.80;2.15;;;;;;;;;;5132398;27;20164;-82
2021/01/28 08:04:05;;;;;;;2.33;1.80;;;;;;;;;;5134120;27;20022;-82
2021/01/28 08:06:34;;;;;;;2.78;1.95;;;;;;;;;;5133632;27;20019;-81
2021/01/28 08:09:06;;;;;;;3.70;1.63;;;;;;;;;;5134187;27;20414;-82
2021/01/28 08:11:32;;;;;;;3.08;1.85;;;;;;;;;;5132625;27;20470;-81
2021/01/28 08:13:57;;;;;;;4.03;1.85;;;;;;;;;;5133874;27;20026;-82
2021/01/28 08:16:23;;;;;;;1.93;1.70;;;;;;;;;;5132478;27;20038;-81
2021/01/28 08:19:02;;;;;;;2.80;1.98;;;;;;;;;;5132441;27;20469;-81
2021/01/28 08:21:28;;;;;;;4.70;1.90;;;;;;;;;;5132357;27;20405;-81
2021/01/28 08:23:54;;;;;;;3.80;1.93;;;;;;;;;;5132357;27;20018;-81
2021/01/28 08:26:27;;;;;;;2.93;2.03;;;;;;;;;;5132187;27;20106;-81
2021/01/28 08:29:04;;;;;;;3.03;1.90;;;;;;;;;;5131750;27;20011;-84
2021/01/28 08:31:36;;;;;;;5.23;2.33;;;;;;;;;;5132273;27;20023;-83
2021/01/28 08:34:03;;;;;;;5.10;2.75;;;;;;;;;;5132162;27;20011;-84
2021/01/28 08:36:43;;;;;;;3.63;2.60;;;;;;;;;;5132364;27;20557;-83
2021/01/28 08:39:11;;;;;;;4.33;2.53;;;;;;;;;;5130669;27;20398;-83
2021/01/28 08:41:36;;;;;;;4.07;2.53;;;;;;;;;;5132027;27;20025;-83
2021/01/28 08:44:04;;;;;;;5.43;3.03;;;;;;;;;;5132244;27;20114;-83
2021/01/28 08:46:30;;;;;;;3.13;2.33;;;;;;;;;;5132262;28;20023;-83
2021/01/28 08:49:10;;;;;;;4.07;2.33;;;;;;;;;;5131770;28;20023;-83
2021/01/28 08:51:40;;;;;;;3.87;2.50;;;;;;;;;;5131822;28;20389;-83
2021/01/28 08:54:25;;;;;;;3.83;2.70;;;;;;;;;;5131853;28;21149;-84
2021/01/28 08:56:53;;;;;;;5.00;2.73;;;;;;;;;;5131434;28;20039;-83
2021/01/28 08:59:19;;;;;;;4.37;2.20;;;;;;;;;;5131944;28;20052;-84
2021/01/28 09:01:49;;;;;;;6.33;2.50;;;;;;;;;;5132276;28;20020;-84
2021/01/28 09:04:22;;;;;;;4.67;2.70;;;;;;;;;;5131974;28;20050;-84
2021/01/28 09:06:48;;;;;;;5.90;2.77;;;;;;;;;;5131598;27;20102;-84
2021/01/28 09:09:19;;;;;;;4.20;2.30;;;;;;;;;;5131385;28;20054;-84
2021/01/28 09:11:45;;;;;;;4.30;2.33;;;;;;;;;;5132084;28;20019;-83
2021/01/28 09:14:16;;;;;;;5.23;2.50;;;;;;;;;;5131764;28;20038;-84
2021/01/28 09:16:55;;;;;;;7.80;2.87;;;;;;;;;;5131783;28;20339;-83
2021/01/28 09:19:21;;;;;;;3.93;2.57;;;;;;;;;;5132064;28;20466;-83
2021/01/28 09:21:50;;;;;;;4.80;2.63;;;;;;;;;;5131765;28;20031;-83
2021/01/28 09:24:17;;;;;;;7.20;2.70;;;;;;;;;;5133176;27;20462;-83
2021/01/28 09:26:43;;;;;;;4.20;2.20;;;;;;;;;;5131664;28;20023;-82
2021/01/28 09:29:09;;;;;;;3.40;1.90;;;;;;;;;;5131887;28;20083;-84
2021/01/28 09:31:34;;;;;;;5.03;2.40;;;;;;;;;;5131538;27;20057;-84
2021/01/28 09:34:12;;;;;;;8.60;2.93;;;;;;;;;;5131821;28;20508;-83
2021/01/28 09:36:37;;;;;;;8.07;2.90;;;;;;;;;;5131945;28;20385;-83
2021/01/28 09:39:21;;;;;;;4.77;3.00;;;;;;;;;;5131729;28;20023;-83
2021/01/28 09:41:48;;;;;;;4.20;3.03;;;;;;;;;;5130953;28;20014;-83
2021/01/28 09:44:27;;;;;;;5.17;3.10;;;;;;;;;;5130885;28;20016;-83
2021/01/28 09:47:10;;;;;;;6.40;2.90;;;;;;;;;;5123655;28;20019;-83
2021/01/28 09:49:35;;;;;;;3.42;2.80;;;;;;;;;;5127658;27;20023;-82
2021/01/28 09:52:00;;;;;;;4.83;3.70;;;;;;;;;;5127212;27;20042;-83
2021/01/28 09:54:25;;;;;;;4.53;3.03;;;;;;;;;;5135275;27;20120;-83
2021/01/28 09:56:51;;;;;;;4.47;3.53;;;;;;;;;;5135260;27;20083;-83
2021/01/28 09:59:16;;;;;;;7.40;4.10;;;;;;;;;;5134752;27;20038;-83
2021/01/28 10:01:42;;;;;;;6.17;4.00;;;;;;;;;;5135000;27;20016;-83
2021/01/28 10:04:07;;;;;;;4.90;3.77;;;;;;;;;;5136552;27;20117;-83
2021/01/28 10:06:32;;;;;;;5.47;3.97;;;;;;;;;;5130108;27;20083;-84
2021/01/28 10:08:59;;;;;;;4.60;4.00;;;;;;;;;;5135436;27;20023;-84
2021/01/28 10:11:24;;;;;;;4.67;3.67;;;;;;;;;;5135120;27;20019;-85
2021/01/28 10:13:52;;;;;;;5.50;4.40;;;;;;;;;;5135038;27;20035;-84
2021/01/28 10:16:17;;;;;;;5.77;4.10;;;;;;;;;;5135019;27;20041;-84
2021/01/28 10:18:42;;;;;;;6.23;3.77;;;;;;;;;;5136412;27;20019;-84
2021/01/28 10:21:08;;;;;;;5.53;3.00;;;;;;;;;;5134423;27;20023;-85
2021/01/28 10:23:33;;;;;;;4.80;3.80;;;;;;;;;;5133109;27;20033;-85
2021/01/28 10:25:58;;;;;;;6.30;3.60;;;;;;;;;;5135749;27;20015;-85
2021/01/28 10:28:23;;;;;;;5.77;3.97;;;;;;;;;;5134664;27;20079;-83
2021/01/28 10:30:48;;;;;;;4.60;3.67;;;;;;;;;;5134780;27;20115;-83
2021/01/28 10:33:13;;;;;;;6.80;3.47;;;;;;;;;;5133440;27;20378;-83
2021/01/28 10:35:39;;;;;;;6.93;3.83;;;;;;;;;;5134772;27;20080;-83
2021/01/28 10:38:05;;;;;;;6.40;3.93;;;;;;;;;;5134697;27;20027;-84
2021/01/28 10:40:31;;;;;;;3.67;3.10;;;;;;;;;;5134634;27;20023;-83
2021/01/28 10:42:57;;;;;;;4.80;3.00;;;;;;;;;;5134149;27;20351;-83
2021/01/28 10:45:24;;;;;;;4.47;2.90;;;;;;;;;;5135819;27;20489;-83
2021/01/28 10:47:53;;;;;;;4.27;2.50;;;;;;;;;;5121428;27;20016;-84
2021/01/28 10:50:21;;;;;;;3.37;2.80;;;;;;;;;;5134351;27;20027;-83
2021/01/28 10:52:46;;;;;;;6.30;3.10;;;;;;;;;;5134797;27;20042;-83
2021/01/28 10:55:12;;;;;;;3.27;2.60;;;;;;;;;;5134043;27;20042;-83
2021/01/28 10:57:37;;;;;;;6.60;2.47;;;;;;;;;;5135208;27;20011;-82
2021/01/28 11:00:04;;;;;;;5.77;1.83;;;;;;;;;;5134317;27;20358;-82
2021/01/28 11:02:29;;;;;;;3.07;2.00;;;;;;;;;;5133291;27;20119;-82
2021/01/28 11:04:54;;;;;;;2.30;1.70;;;;;;;;;;5135504;27;20477;-82
2021/01/28 11:07:20;;;;;;;3.87;2.10;;;;;;;;;;5133589;27;20032;-82
2021/01/28 11:09:45;;;;;;;4.37;1.60;;;;;;;;;;5133633;27;20466;-82
2021/01/28 11:12:10;;;;;;;3.43;1.67;;;;;;;;;;5135240;27;20019;-82
2021/01/28 11:14:35;;;;;;;5.13;1.50;;;;;;;;;;5133894;27;20019;-82
2021/01/28 11:17:00;;;;;;;2.37;1.40;;;;;;;;;;5135197;27;20026;-82
2021/01/28 11:19:26;;;;;;;2.27;1.80;;;;;;;;;;5133378;27;20470;-83
2021/01/28 11:21:51;;;;;;;2.40;1.87;;;;;;;;;;5133681;27;20015;-82
2021/01/28 11:24:16;;;;;;;3.17;1.80;;;;;;;;;;5133391;27;20110;-83
2021/01/28 11:26:42;;;;;;;5.00;2.00;;;;;;;;;;5134974;27;20347;-83
2021/01/28 11:29:07;;;;;;;2.80;2.00;;;;;;;;;;5120638;27;20015;-82
2021/01/28 11:31:34;;;;;;;2.60;2.23;;;;;;;;;;5133657;27;20061;-82
2021/01/28 11:33:59;;;;;;;3.10;2.40;;;;;;;;;;5133381;27;20015;-83
2021/01/28 11:36:25;;;;;;;4.43;2.50;;;;;;;;;;5133461;27;20034;-83
2021/01/28 11:38:50;;;;;;;4.03;2.37;;;;;;;;;;5133146;27;20114;-82
2021/01/28 11:41:15;;;;;;;4.33;2.97;;;;;;;;;;5135083;27;20034;-82
2021/01/28 11:43:40;;;;;;;4.10;3.00;;;;;;;;;;5134907;27;20090;-82
2021/01/28 11:46:05;;;;;;;6.97;3.70;;;;;;;;;;5135155;27;20043;-82
2021/01/28 11:48:31;;;;;;;6.03;3.80;;;;;;;;;;5133429;27;20521;-82
2021/01/28 11:50:56;;;;;;;5.03;3.17;;;;;;;;;;5132421;27;20019;-82
2021/01/28 11:53:21;;;;;;;4.20;2.90;;;;;;;;;;5132845;27;20458;-82
2021/01/28 11:55:46;;;;;;;5.93;3.03;;;;;;;;;;5134039;27;20102;-82
2021/01/28 11:58:12;;;;;;;5.80;4.07;;;;;;;;;;5133089;27;20058;-83
2021/01/28 12:00:38;;;;;;;6.23;4.30;;;;;;;;;;5132955;27;20522;-83
2021/01/28 12:03:04;;;;;;;9.67;4.33;;;;;;;;;;5132611;27;20015;-83
2021/01/28 12:05:29;;;;;;;8.03;4.53;;;;;;;;;;5134282;27;20027;-83
2021/01/28 12:07:56;;;;;;;5.88;3.70;;;;;;;;;;5134268;27;20480;-83
2021/01/28 12:10:22;;;;;;;5.75;3.47;;;;;;;;;;5133669;27;20103;-82
2021/01/28 12:12:48;;;;;;;7.23;4.57;;;;;;;;;;5133844;27;20019;-83
2021/01/28 12:15:13;;;;;;;7.43;4.10;;;;;;;;;;5134321;27;20034;-82
2021/01/28 12:17:39;;;;;;;5.20;4.13;;;;;;;;;;5132829;27;20374;-83
2021/01/28 12:20:05;;;;;;;6.30;4.35;;;;;;;;;;5132023;27;20023;-82
2021/01/28 12:22:30;;;;;;;8.87;4.77;;;;;;;;;;5132341;27;20442;-82
2021/01/28 12:24:55;;;;;;;7.73;5.13;;;;;;;;;;5132565;27;20012;-82
2021/01/28 12:27:20;;;;;;;6.33;4.40;;;;;;;;;;5132627;27;20068;-81
2021/01/28 12:29:45;;;;;;;7.18;5.05;;;;;;;;;;5130593;27;20432;-83
2021/01/28 12:32:11;;;;;;;8.82;5.20;;;;;;;;;;5133259;27;20046;-83
2021/01/28 12:34:36;;;;;;;6.68;5.13;;;;;;;;;;5133695;27;20346;-82
2021/01/28 12:37:02;;;;;;;6.28;4.72;;;;;;;;;;5130602;27;20023;-81
2021/01/28 12:39:27;;;;;;;9.77;5.97;;;;;;;;;;5133633;27;20073;-82
2021/01/28 12:41:53;;;;;;;8.82;4.70;;;;;;;;;;5132227;27;20019;-82
2021/01/28 12:44:18;;;;;;;6.97;4.97;;;;;;;;;;5130879;27;20432;-82
2021/01/28 12:46:43;;;;;;;6.78;5.05;;;;;;;;;;5159013;27;20022;-82
2021/01/28 12:49:08;;;;;;;10.40;4.80;;;;;;;;;;5131634;27;20132;-81
2021/01/28 12:51:34;;;;;;;9.47;5.37;;;;;;;;;;5132127;28;20019;-82
2021/01/28 12:53:59;;;;;;;6.18;4.25;;;;;;;;;;5132242;28;20015;-82
2021/01/28 12:56:24;;;;;;;11.70;5.53;;;;;;;;;;5125583;28;20019;-82
2021/01/28 12:58:49;;;;;;;10.55;5.88;;;;;;;;;;5132087;28;20019;-82
2021/01/28 13:01:14;;;;;;;8.55;5.63;;;;;;;;;;5132187;28;20490;-82
2021/01/28 13:03:40;;;;;;;8.10;5.95;;;;;;;;;;5130724;28;20019;-82
2021/01/28 13:06:05;;;;;;;10.23;7.45;;;;;;;;;;5132032;28;20016;-81
2021/01/28 13:08:30;;;;;;;9.02;5.80;;;;;;;;;;5131709;28;20015;-82
2021/01/28 13:10:55;;;;;;;11.38;7.68;;;;;;;;;;5131977;28;20411;-81
2021/01/28 13:13:20;;;;;;;12.68;6.70;;;;;;;;;;5132220;28;20120;-82
2021/01/28 13:15:46;;;;;;;15.13;7.90;;;;;;;;;;5133306;28;20015;-82
2021/01/28 13:18:12;;;;;;;20.42;8.98;;;;;;;;;;5133025;28;20466;-82
2021/01/28 13:20:38;;;;;;;11.27;7.90;;;;;;;;;;5131974;28;20033;-82
2021/01/28 13:23:03;;;;;;;17.50;9.48;;;;;;;;;;5133162;27;20493;-82
2021/01/28 13:25:28;;;;;;;17.07;9.60;;;;;;;;;;5134636;27;20461;-82
2021/01/28 13:27:54;;;;;;;17.90;9.95;;;;;;;;;;5136153;27;20110;-82
2021/01/28 13:30:20;;;;;;;13.82;10.25;;;;;;;;;;5135380;27;20015;-82
2021/01/28 13:32:45;;;;;;;20.00;9.57;;;;;;;;;;5135466;27;20373;-83
2021/01/28 13:35:13;;;;;;;15.90;8.50;;;;;;;;;;5135407;27;20020;-82
2021/01/28 13:37:38;;;;;;;20.17;10.85;;;;;;;;;;5122748;27;20072;-83
2021/01/28 13:40:04;;;;;;;14.70;10.32;;;;;;;;;;5135552;27;20019;-84
2021/01/28 13:42:29;;;;;;;14.73;10.45;;;;;;;;;;5135403;27;20020;-85
2021/01/28 13:44:54;;;;;;;16.60;9.45;;;;;;;;;;5136344;27;20015;-85
2021/01/28 13:47:20;;;;;;;13.55;9.40;;;;;;;;;;5134286;27;20015;-84
2021/01/28 13:49:45;;;;;;;15.35;10.18;;;;;;;;;;5136521;27;20011;-84
2021/01/28 13:52:11;;;;;;;16.40;9.20;;;;;;;;;;5133400;27;20023;-83
2021/01/28 13:54:36;;;;;;;14.10;10.43;;;;;;;;;;5136574;27;20007;-83
2021/01/28 13:57:01;;;;;;;16.70;9.15;;;;;;;;;;5135567;27;20030;-83
2021/01/28 13:59:27;;;;;;;14.52;10.13;;;;;;;;;;5135065;27;20015;-83
2021/01/28 14:01:55;;;;;;;14.90;9.68;;;;;;;;;;5136632;27;20015;-84
2021/01/28 14:04:20;;;;;;;14.02;9.48;;;;;;;;;;5134911;27;20160;-84
2021/01/28 14:06:45;;;;;;;19.13;9.38;;;;;;;;;;5136398;27;20460;-83
2021/01/28 14:09:10;;;;;;;12.90;9.18;;;;;;;;;;5135082;27;20413;-83
2021/01/28 14:11:36;;;;;;;12.88;8.77;;;;;;;;;;5135869;27;20023;-83
2021/01/28 14:14:01;;;;;;;12.48;8.63;;;;;;;;;;5134769;27;20023;-81
2021/01/28 14:16:26;;;;;;;16.17;9.70;;;;;;;;;;5135511;27;20015;-81
2021/01/28 14:18:51;;;;;;;11.52;7.85;;;;;;;;;;5134723;27;20038;-81
2021/01/28 14:21:17;;;;;;;16.10;8.90;;;;;;;;;;5133896;27;20027;-81
2021/01/28 14:23:42;;;;;;;12.13;7.30;;;;;;;;;;5134586;27;20466;-81
2021/01/28 14:26:07;;;;;;;13.07;7.10;;;;;;;;;;5134658;27;20030;-81
2021/01/28 14:28:32;;;;;;;9.75;6.75;;;;;;;;;;5134278;27;20019;-81
2021/01/28 14:30:57;;;;;;;10.32;6.72;;;;;;;;;;5132386;27;20375;-81
2021/01/28 14:33:23;;;;;;;11.88;7.18;;;;;;;;;;5130906;27;20153;-81
2021/01/28 14:35:49;;;;;;;11.43;6.57;;;;;;;;;;5135614;27;20056;-81
2021/01/28 14:38:15;;;;;;;8.33;6.17;;;;;;;;;;5133124;27;20381;-81
2021/01/28 14:40:40;;;;;;;12.48;6.18;;;;;;;;;;5134318;27;20094;-81